CYCX weather

CFB Gagetown Heliport
Gagetown, New Brunswick, Canada

Public forecast

Using degrees Celsius for public forecast. Weather courtesy of forecast.io.

METAR (pilot weather report)

Retrieved 2019/08/21 22:25 UTC (48 seconds ago):

CYCX 212225Z 19005KT 10SM -RA BKN022 OVC060 21/18 A2993 RMK SC6SC2 DA1096FT SLP135

TAF (pilot weather forecast)

Retrieved 2019/08/21 18:33 UTC (4 hours ago):

TAF TAF CYCX 211730Z 2118/2206 21010KT P6SM FEW010 FEW090 BKN240 BECMG 2119/2121 21012G22KT SCT010 BKN070 FM220100 22012G22KT P6SM SCT010 BKN070 TEMPO 2201/2204 6SM -SHRA BR BKN010 OVC240 FM220400 19010G20KT 6SM -SHRA BR BKN010 TEMPO 2204/2206 3SM -SHRA BR BKN005 OVC010 PROB40 2204/2206 VRB15G25KT 1SM TSRA BR BKN003 OVC010CB RMK NXT FCST BY 220000Z